Impacts TAF Board
For situational awareness. Not to be used for flight planning purposes.
IDs:

KMDW - Chicago/Midway Intl, IL, US

Issued at 2332 UTC 23 May 2019
Updated at 0057 UTC 24 May 2019
Potential Impact None Slight Moderate High
Time0053Z 24/01Z 24/02Z 24/03Z 24/04Z 24/05Z 24/06Z 24/07Z 24/08Z 24/09Z 24/10Z 24/11Z 24/12Z 24/13Z>>
Type OBS PRVL PRVL PRVL PRVL PRVL PRVL PRVL PRVL PRVL PRVL PRVL PRVL
  [PRB30]  
PRVL
  [PRB30]  
VIS 10 >6 >6 >6 >6 >6 >6 >6 >6 >6 >6 >6 6
  [3]  
6
  [3]  
CIG -- -- -- -- 250 250 250 250 250 250 250 250 50
  [35]  
50
  [35]  
Cover FEW SCT SCT SCT BKN BKN BKN BKN BKN BKN BKN BKN BKN
  [OVC]  
BKN
  [OVC]  
FltCat VFR VFR VFR VFR VFR VFR VFR VFR VFR VFR VFR VFR VFR
  [MVFR]  
VFR
  [MVFR]  
WX -- -- -- -- -- -- -- -- -- -- -- -- -SHRA
  [-TSRA]  
-SHRA
  [-TSRA]  
WDir 300 300 300 300 30 30 30 30 30 30 30 30 70
[70]
70
[70]
WSpd 10 10 10 10 6 6 6 6 6 6 6 6 9
  [9]  
9
  [9]  
WGst -- -- -- -- -- -- -- -- -- -- -- -- --
  [--]  
--
  [--]  
Raw TAF
KMDW 232332Z 2400/2506 30010KT P6SM SCT250
  FM240400 03006KT P6SM FEW120 BKN250
  FM241200 07009KT 6SM -SHRA SCT020 BKN050
  PROB30 2412/2415 3SM -TSRA SCT015CB OVC035
  FM241600 12010G15KT P6SM SCT025 BKN050
  FM250300 18010KT P6SM VCSH SCT050 BKN120


Raw METAR
KMDW 240053Z 30010KT 10SM FEW250 22/09 A3005 RMK AO2 SLP170 T02220089
KMDW 232353Z 28010KT 10SM FEW250 23/08 A3003 RMK AO2 SLP163 T02330083 10244 20228 50003
KMDW 232253Z 28013G21KT 10SM FEW250 24/09 A3004 RMK AO2 SLP164 T02390094
KMDW 232153Z 29011G20KT 10SM FEW250 24/11 A3003 RMK AO2 SLP162 T02440111

METAR Board
Radar Display
Forecast Discussion
For situational awareness. Not to be used for flight planning purposes.